sensor_id;sensor_type;location;lat;lon;timestamp;P1;durP1;ratioP1;P2;durP2;ratioP2
46084;SDS011;31823;47.032;8.310;2022-08-19T00:01:24;13.00;;;9.38;;
46084;SDS011;31823;47.032;8.310;2022-08-19T00:03:52;13.55;;;9.10;;
46084;SDS011;31823;47.032;8.310;2022-08-19T00:06:18;17.63;;;9.80;;
46084;SDS011;31823;47.032;8.310;2022-08-19T00:08:43;17.67;;;10.77;;
46084;SDS011;31823;47.032;8.310;2022-08-19T00:11:10;15.60;;;9.93;;
46084;SDS011;31823;47.032;8.310;2022-08-19T00:13:36;13.30;;;9.52;;
46084;SDS011;31823;47.032;8.310;2022-08-19T00:16:03;14.73;;;10.07;;
46084;SDS011;31823;47.032;8.310;2022-08-19T00:18:31;14.65;;;9.80;;
46084;SDS011;31823;47.032;8.310;2022-08-19T00:20:56;17.08;;;11.20;;
46084;SDS011;31823;47.032;8.310;2022-08-19T00:23:23;16.80;;;10.57;;
46084;SDS011;31823;47.032;8.310;2022-08-19T00:25:49;15.70;;;10.45;;
46084;SDS011;31823;47.032;8.310;2022-08-19T00:28:15;16.58;;;11.18;;
46084;SDS011;31823;47.032;8.310;2022-08-19T00:30:41;16.17;;;11.15;;
46084;SDS011;31823;47.032;8.310;2022-08-19T00:33:07;19.10;;;11.02;;
46084;SDS011;31823;47.032;8.310;2022-08-19T00:35:33;16.02;;;11.35;;
46084;SDS011;31823;47.032;8.310;2022-08-19T00:37:59;18.58;;;10.75;;
46084;SDS011;31823;47.032;8.310;2022-08-19T00:40:25;17.88;;;11.82;;
46084;SDS011;31823;47.032;8.310;2022-08-19T00:42:51;17.02;;;10.63;;
46084;SDS011;31823;47.032;8.310;2022-08-19T00:45:19;14.75;;;10.80;;
46084;SDS011;31823;47.032;8.310;2022-08-19T00:47:47;16.33;;;10.85;;
46084;SDS011;31823;47.032;8.310;2022-08-19T00:50:15;16.45;;;11.10;;
46084;SDS011;31823;47.032;8.310;2022-08-19T00:52:45;17.13;;;11.10;;
46084;SDS011;31823;47.032;8.310;2022-08-19T00:55:24;15.88;;;10.88;;
46084;SDS011;31823;47.032;8.310;2022-08-19T00:58:01;14.98;;;10.90;;
46084;SDS011;31823;47.032;8.310;2022-08-19T01:00:47;19.02;;;11.60;;
46084;SDS011;31823;47.032;8.310;2022-08-19T01:03:15;17.05;;;10.52;;
46084;SDS011;31823;47.032;8.310;2022-08-19T01:05:43;14.63;;;9.70;;
46084;SDS011;31823;47.032;8.310;2022-08-19T01:08:10;15.43;;;10.68;;
46084;SDS011;31823;47.032;8.310;2022-08-19T01:10:39;15.05;;;10.60;;
46084;SDS011;31823;47.032;8.310;2022-08-19T01:13:07;13.55;;;10.05;;
46084;SDS011;31823;47.032;8.310;2022-08-19T01:15:39;15.15;;;9.27;;
46084;SDS011;31823;47.032;8.310;2022-08-19T01:18:09;13.35;;;8.80;;
46084;SDS011;31823;47.032;8.310;2022-08-19T01:20:37;14.35;;;10.30;;
46084;SDS011;31823;47.032;8.310;2022-08-19T01:23:04;16.20;;;10.15;;
46084;SDS011;31823;47.032;8.310;2022-08-19T01:25:41;12.45;;;9.25;;
46084;SDS011;31823;47.032;8.310;2022-08-19T01:28:19;15.50;;;9.27;;
46084;SDS011;31823;47.032;8.310;2022-08-19T01:30:52;12.85;;;8.65;;
46084;SDS011;31823;47.032;8.310;2022-08-19T01:33:19;14.38;;;9.63;;
46084;SDS011;31823;47.032;8.310;2022-08-19T01:35:46;12.65;;;8.90;;
46084;SDS011;31823;47.032;8.310;2022-08-19T01:38:34;11.55;;;9.25;;
46084;SDS011;31823;47.032;8.310;2022-08-19T01:41:02;14.07;;;9.02;;
46084;SDS011;31823;47.032;8.310;2022-08-19T01:43:27;13.05;;;8.95;;
46084;SDS011;31823;47.032;8.310;2022-08-19T01:45:53;12.15;;;8.60;;
46084;SDS011;31823;47.032;8.310;2022-08-19T01:48:19;13.48;;;9.35;;
46084;SDS011;31823;47.032;8.310;2022-08-19T01:50:45;12.25;;;8.40;;
46084;SDS011;31823;47.032;8.310;2022-08-19T01:53:12;11.82;;;8.20;;
46084;SDS011;31823;47.032;8.310;2022-08-19T01:55:39;11.98;;;8.20;;
46084;SDS011;31823;47.032;8.310;2022-08-19T01:58:06;10.23;;;7.70;;
46084;SDS011;31823;47.032;8.310;2022-08-19T02:00:35;13.95;;;7.55;;
46084;SDS011;31823;47.032;8.310;2022-08-19T02:03:01;8.65;;;6.15;;
46084;SDS011;31823;47.032;8.310;2022-08-19T02:05:27;9.38;;;6.55;;
46084;SDS011;31823;47.032;8.310;2022-08-19T02:07:54;8.90;;;6.65;;
46084;SDS011;31823;47.032;8.310;2022-08-19T02:10:24;10.27;;;7.47;;
46084;SDS011;31823;47.032;8.310;2022-08-19T02:12:50;10.45;;;7.28;;
46084;SDS011;31823;47.032;8.310;2022-08-19T02:15:16;11.70;;;7.50;;
46084;SDS011;31823;47.032;8.310;2022-08-19T02:17:44;13.40;;;8.75;;
46084;SDS011;31823;47.032;8.310;2022-08-19T02:20:10;10.48;;;7.65;;
46084;SDS011;31823;47.032;8.310;2022-08-19T02:22:38;10.13;;;7.60;;
46084;SDS011;31823;47.032;8.310;2022-08-19T02:25:06;11.60;;;7.53;;
46084;SDS011;31823;47.032;8.310;2022-08-19T02:27:32;10.80;;;6.95;;
46084;SDS011;31823;47.032;8.310;2022-08-19T02:29:59;9.05;;;6.75;;
46084;SDS011;31823;47.032;8.310;2022-08-19T02:32:25;10.38;;;7.13;;
46084;SDS011;31823;47.032;8.310;2022-08-19T02:34:51;9.40;;;7.07;;
46084;SDS011;31823;47.032;8.310;2022-08-19T02:37:17;8.85;;;6.60;;
46084;SDS011;31823;47.032;8.310;2022-08-19T02:40:01;10.93;;;7.50;;
46084;SDS011;31823;47.032;8.310;2022-08-19T02:42:28;10.55;;;7.57;;
46084;SDS011;31823;47.032;8.310;2022-08-19T02:44:55;11.80;;;7.40;;
46084;SDS011;31823;47.032;8.310;2022-08-19T02:47:21;9.70;;;7.22;;
46084;SDS011;31823;47.032;8.310;2022-08-19T02:49:46;9.10;;;7.05;;
46084;SDS011;31823;47.032;8.310;2022-08-19T02:52:14;9.45;;;6.75;;
46084;SDS011;31823;47.032;8.310;2022-08-19T02:54:40;11.48;;;6.97;;
46084;SDS011;31823;47.032;8.310;2022-08-19T02:57:07;11.77;;;7.10;;
46084;SDS011;31823;47.032;8.310;2022-08-19T02:59:33;9.95;;;6.90;;
46084;SDS011;31823;47.032;8.310;2022-08-19T03:01:59;10.65;;;7.68;;
46084;SDS011;31823;47.032;8.310;2022-08-19T03:04:25;10.77;;;7.05;;
46084;SDS011;31823;47.032;8.310;2022-08-19T03:06:50;10.63;;;7.35;;
46084;SDS011;31823;47.032;8.310;2022-08-19T03:09:17;10.93;;;7.40;;
46084;SDS011;31823;47.032;8.310;2022-08-19T03:11:45;9.85;;;7.05;;
46084;SDS011;31823;47.032;8.310;2022-08-19T03:14:11;12.10;;;7.47;;
46084;SDS011;31823;47.032;8.310;2022-08-19T03:16:42;10.15;;;7.10;;
46084;SDS011;31823;47.032;8.310;2022-08-19T03:19:09;9.18;;;6.97;;
46084;SDS011;31823;47.032;8.310;2022-08-19T03:21:37;11.27;;;6.85;;
46084;SDS011;31823;47.032;8.310;2022-08-19T03:24:04;11.32;;;7.93;;
46084;SDS011;31823;47.032;8.310;2022-08-19T03:26:32;10.10;;;7.20;;
46084;SDS011;31823;47.032;8.310;2022-08-19T03:29:01;11.90;;;7.43;;
46084;SDS011;31823;47.032;8.310;2022-08-19T03:31:27;11.63;;;7.10;;
46084;SDS011;31823;47.032;8.310;2022-08-19T03:33:53;10.40;;;6.97;;
46084;SDS011;31823;47.032;8.310;2022-08-19T03:36:20;8.27;;;6.10;;
46084;SDS011;31823;47.032;8.310;2022-08-19T03:38:49;8.02;;;6.20;;
46084;SDS011;31823;47.032;8.310;2022-08-19T03:41:23;8.20;;;5.25;;
46084;SDS011;31823;47.032;8.310;2022-08-19T03:43:51;6.65;;;5.05;;
46084;SDS011;31823;47.032;8.310;2022-08-19T03:46:19;6.35;;;4.88;;
46084;SDS011;31823;47.032;8.310;2022-08-19T03:48:47;6.47;;;4.82;;
46084;SDS011;31823;47.032;8.310;2022-08-19T03:51:32;7.82;;;4.55;;
46084;SDS011;31823;47.032;8.310;2022-08-19T03:54:00;6.38;;;4.75;;
46084;SDS011;31823;47.032;8.310;2022-08-19T03:56:28;6.05;;;4.53;;
46084;SDS011;31823;47.032;8.310;2022-08-19T03:58:55;7.53;;;4.72;;
46084;SDS011;31823;47.032;8.310;2022-08-19T04:01:22;5.97;;;4.65;;
46084;SDS011;31823;47.032;8.310;2022-08-19T04:03:53;5.28;;;4.03;;
46084;SDS011;31823;47.032;8.310;2022-08-19T04:06:24;6.97;;;4.10;;
46084;SDS011;31823;47.032;8.310;2022-08-19T04:08:52;5.18;;;4.15;;
46084;SDS011;31823;47.032;8.310;2022-08-19T04:11:20;5.70;;;4.30;;
46084;SDS011;31823;47.032;8.310;2022-08-19T04:13:49;5.82;;;4.20;;
46084;SDS011;31823;47.032;8.310;2022-08-19T04:16:16;7.13;;;3.65;;
46084;SDS011;31823;47.032;8.310;2022-08-19T04:18:46;6.30;;;3.97;;
46084;SDS011;31823;47.032;8.310;2022-08-19T04:21:20;8.65;;;4.47;;
46084;SDS011;31823;47.032;8.310;2022-08-19T04:23:47;6.82;;;4.13;;
46084;SDS011;31823;47.032;8.310;2022-08-19T04:26:14;5.68;;;3.72;;
46084;SDS011;31823;47.032;8.310;2022-08-19T04:28:44;4.82;;;3.70;;
46084;SDS011;31823;47.032;8.310;2022-08-19T04:31:15;6.35;;;4.63;;
46084;SDS011;31823;47.032;8.310;2022-08-19T04:33:43;5.05;;;4.07;;
46084;SDS011;31823;47.032;8.310;2022-08-19T04:36:19;5.63;;;4.25;;
46084;SDS011;31823;47.032;8.310;2022-08-19T04:38:47;5.97;;;4.00;;
46084;SDS011;31823;47.032;8.310;2022-08-19T04:41:22;6.25;;;4.40;;
46084;SDS011;31823;47.032;8.310;2022-08-19T04:44:07;9.82;;;4.57;;
46084;SDS011;31823;47.032;8.310;2022-08-19T04:46:33;12.70;;;6.65;;
46084;SDS011;31823;47.032;8.310;2022-08-19T04:48:59;6.03;;;4.40;;
46084;SDS011;31823;47.032;8.310;2022-08-19T04:51:26;6.38;;;4.38;;
46084;SDS011;31823;47.032;8.310;2022-08-19T04:53:52;9.45;;;5.85;;
46084;SDS011;31823;47.032;8.310;2022-08-19T04:56:18;7.80;;;4.97;;
46084;SDS011;31823;47.032;8.310;2022-08-19T04:58:47;7.28;;;4.93;;
46084;SDS011;31823;47.032;8.310;2022-08-19T05:01:21;11.13;;;6.85;;
46084;SDS011;31823;47.032;8.310;2022-08-19T05:03:53;8.75;;;6.00;;
46084;SDS011;31823;47.032;8.310;2022-08-19T05:06:20;10.75;;;6.75;;
46084;SDS011;31823;47.032;8.310;2022-08-19T05:08:47;11.70;;;6.97;;
46084;SDS011;31823;47.032;8.310;2022-08-19T05:11:14;11.30;;;6.53;;
46084;SDS011;31823;47.032;8.310;2022-08-19T05:13:43;9.70;;;5.57;;
46084;SDS011;31823;47.032;8.310;2022-08-19T05:16:10;11.23;;;6.53;;
46084;SDS011;31823;47.032;8.310;2022-08-19T05:18:37;10.18;;;6.50;;
46084;SDS011;31823;47.032;8.310;2022-08-19T05:21:22;10.07;;;6.60;;
46084;SDS011;31823;47.032;8.310;2022-08-19T05:24:07;10.55;;;6.28;;
46084;SDS011;31823;47.032;8.310;2022-08-19T05:26:37;8.57;;;6.38;;
46084;SDS011;31823;47.032;8.310;2022-08-19T05:29:05;10.07;;;6.57;;
46084;SDS011;31823;47.032;8.310;2022-08-19T05:31:32;10.57;;;5.90;;
46084;SDS011;31823;47.032;8.310;2022-08-19T05:33:58;8.88;;;6.20;;
46084;SDS011;31823;47.032;8.310;2022-08-19T05:36:24;10.65;;;6.47;;
46084;SDS011;31823;47.032;8.310;2022-08-19T05:38:51;12.85;;;6.68;;
46084;SDS011;31823;47.032;8.310;2022-08-19T05:41:18;10.55;;;6.53;;
46084;SDS011;31823;47.032;8.310;2022-08-19T05:43:45;13.43;;;7.65;;
46084;SDS011;31823;47.032;8.310;2022-08-19T05:46:18;13.45;;;8.40;;
46084;SDS011;31823;47.032;8.310;2022-08-19T05:48:44;11.30;;;7.93;;
46084;SDS011;31823;47.032;8.310;2022-08-19T05:51:10;11.13;;;7.60;;
46084;SDS011;31823;47.032;8.310;2022-08-19T05:53:36;13.73;;;8.32;;
46084;SDS011;31823;47.032;8.310;2022-08-19T05:56:03;12.55;;;7.25;;
46084;SDS011;31823;47.032;8.310;2022-08-19T05:58:33;12.48;;;7.38;;
46084;SDS011;31823;47.032;8.310;2022-08-19T06:01:00;12.52;;;7.70;;
46084;SDS011;31823;47.032;8.310;2022-08-19T06:03:30;11.68;;;8.25;;
46084;SDS011;31823;47.032;8.310;2022-08-19T06:05:58;11.57;;;8.10;;
46084;SDS011;31823;47.032;8.310;2022-08-19T06:08:24;11.07;;;7.25;;
46084;SDS011;31823;47.032;8.310;2022-08-19T06:10:51;12.18;;;7.63;;
46084;SDS011;31823;47.032;8.310;2022-08-19T06:13:17;12.23;;;8.43;;
46084;SDS011;31823;47.032;8.310;2022-08-19T06:15:44;11.48;;;7.90;;
46084;SDS011;31823;47.032;8.310;2022-08-19T06:18:11;14.02;;;8.00;;
46084;SDS011;31823;47.032;8.310;2022-08-19T06:20:38;12.07;;;8.10;;
46084;SDS011;31823;47.032;8.310;2022-08-19T06:23:04;11.95;;;7.45;;
46084;SDS011;31823;47.032;8.310;2022-08-19T06:25:30;13.38;;;7.63;;
46084;SDS011;31823;47.032;8.310;2022-08-19T06:27:56;11.93;;;7.57;;
46084;SDS011;31823;47.032;8.310;2022-08-19T06:30:21;11.45;;;7.53;;
46084;SDS011;31823;47.032;8.310;2022-08-19T06:32:47;14.45;;;7.60;;
46084;SDS011;31823;47.032;8.310;2022-08-19T06:35:13;15.40;;;8.75;;
46084;SDS011;31823;47.032;8.310;2022-08-19T06:37:39;13.02;;;7.40;;
46084;SDS011;31823;47.032;8.310;2022-08-19T06:40:05;13.43;;;8.13;;
46084;SDS011;31823;47.032;8.310;2022-08-19T06:42:33;11.88;;;7.75;;
46084;SDS011;31823;47.032;8.310;2022-08-19T06:44:59;13.88;;;8.07;;
46084;SDS011;31823;47.032;8.310;2022-08-19T06:47:28;13.90;;;8.57;;
46084;SDS011;31823;47.032;8.310;2022-08-19T06:49:57;13.57;;;8.75;;
46084;SDS011;31823;47.032;8.310;2022-08-19T06:52:28;13.00;;;8.82;;
46084;SDS011;31823;47.032;8.310;2022-08-19T06:54:54;14.80;;;7.88;;
46084;SDS011;31823;47.032;8.310;2022-08-19T06:57:21;12.52;;;8.50;;
46084;SDS011;31823;47.032;8.310;2022-08-19T06:59:50;16.20;;;9.43;;
46084;SDS011;31823;47.032;8.310;2022-08-19T07:02:17;17.35;;;9.95;;
46084;SDS011;31823;47.032;8.310;2022-08-19T07:04:43;18.50;;;9.80;;
46084;SDS011;31823;47.032;8.310;2022-08-19T07:07:10;26.63;;;12.43;;
46084;SDS011;31823;47.032;8.310;2022-08-19T07:09:38;21.90;;;12.80;;
46084;SDS011;31823;47.032;8.310;2022-08-19T07:12:07;20.80;;;12.43;;
46084;SDS011;31823;47.032;8.310;2022-08-19T07:14:36;21.02;;;12.35;;
46084;SDS011;31823;47.032;8.310;2022-08-19T07:17:07;18.52;;;11.90;;
46084;SDS011;31823;47.032;8.310;2022-08-19T07:19:34;14.85;;;10.20;;
46084;SDS011;31823;47.032;8.310;2022-08-19T07:22:01;15.13;;;10.38;;
46084;SDS011;31823;47.032;8.310;2022-08-19T07:24:33;13.10;;;9.35;;
46084;SDS011;31823;47.032;8.310;2022-08-19T07:27:00;13.27;;;8.57;;
46084;SDS011;31823;47.032;8.310;2022-08-19T07:29:28;15.07;;;8.88;;
46084;SDS011;31823;47.032;8.310;2022-08-19T07:31:55;13.65;;;9.40;;
46084;SDS011;31823;47.032;8.310;2022-08-19T07:34:23;15.60;;;10.02;;
46084;SDS011;31823;47.032;8.310;2022-08-19T07:36:51;12.15;;;8.38;;
46084;SDS011;31823;47.032;8.310;2022-08-19T07:39:27;11.50;;;8.13;;
46084;SDS011;31823;47.032;8.310;2022-08-19T07:41:55;15.00;;;9.18;;
46084;SDS011;31823;47.032;8.310;2022-08-19T07:44:23;13.02;;;9.05;;
46084;SDS011;31823;47.032;8.310;2022-08-19T07:46:50;15.43;;;9.63;;
46084;SDS011;31823;47.032;8.310;2022-08-19T07:49:18;15.18;;;10.32;;
46084;SDS011;31823;47.032;8.310;2022-08-19T07:51:48;13.90;;;9.75;;
46084;SDS011;31823;47.032;8.310;2022-08-19T07:54:16;13.13;;;9.35;;
46084;SDS011;31823;47.032;8.310;2022-08-19T07:56:43;15.32;;;9.07;;
46084;SDS011;31823;47.032;8.310;2022-08-19T07:59:08;14.63;;;10.25;;
46084;SDS011;31823;47.032;8.310;2022-08-19T08:01:36;13.93;;;9.68;;
46084;SDS011;31823;47.032;8.310;2022-08-19T08:04:05;16.45;;;11.23;;
46084;SDS011;31823;47.032;8.310;2022-08-19T08:06:51;16.45;;;10.35;;
46084;SDS011;31823;47.032;8.310;2022-08-19T08:09:37;17.35;;;10.07;;
46084;SDS011;31823;47.032;8.310;2022-08-19T08:12:07;16.55;;;11.45;;
46084;SDS011;31823;47.032;8.310;2022-08-19T08:14:46;17.20;;;10.55;;
46084;SDS011;31823;47.032;8.310;2022-08-19T08:17:15;19.52;;;10.57;;
46084;SDS011;31823;47.032;8.310;2022-08-19T08:19:44;19.38;;;12.15;;
46084;SDS011;31823;47.032;8.310;2022-08-19T08:22:10;15.27;;;10.40;;
46084;SDS011;31823;47.032;8.310;2022-08-19T08:25:09;16.75;;;10.35;;
46084;SDS011;31823;47.032;8.310;2022-08-19T08:27:37;17.17;;;10.88;;
46084;SDS011;31823;47.032;8.310;2022-08-19T08:30:07;18.48;;;11.88;;
46084;SDS011;31823;47.032;8.310;2022-08-19T08:32:36;16.40;;;10.85;;
46084;SDS011;31823;47.032;8.310;2022-08-19T08:35:06;19.35;;;11.45;;
46084;SDS011;31823;47.032;8.310;2022-08-19T08:37:34;16.33;;;10.68;;
46084;SDS011;31823;47.032;8.310;2022-08-19T08:40:08;16.80;;;11.25;;
46084;SDS011;31823;47.032;8.310;2022-08-19T08:42:38;15.27;;;10.68;;
46084;SDS011;31823;47.032;8.310;2022-08-19T08:45:10;17.80;;;10.98;;
46084;SDS011;31823;47.032;8.310;2022-08-19T08:47:41;17.67;;;11.07;;
46084;SDS011;31823;47.032;8.310;2022-08-19T08:50:19;16.80;;;12.05;;
46084;SDS011;31823;47.032;8.310;2022-08-19T08:53:05;18.48;;;10.73;;
46084;SDS011;31823;47.032;8.310;2022-08-19T08:55:33;18.20;;;12.10;;
46084;SDS011;31823;47.032;8.310;2022-08-19T08:58:03;18.35;;;12.05;;
46084;SDS011;31823;47.032;8.310;2022-08-19T09:00:37;17.00;;;11.82;;
46084;SDS011;31823;47.032;8.310;2022-08-19T09:06:03;15.02;;;10.20;;
46084;SDS011;31823;47.032;8.310;2022-08-19T09:11:22;20.75;;;11.07;;
46084;SDS011;31823;47.032;8.310;2022-08-19T09:14:11;13.13;;;9.48;;
46084;SDS011;31823;47.032;8.310;2022-08-19T09:16:49;15.75;;;8.85;;
46084;SDS011;31823;47.032;8.310;2022-08-19T09:19:16;14.57;;;9.45;;
46084;SDS011;31823;47.032;8.310;2022-08-19T09:21:43;14.40;;;10.30;;
46084;SDS011;31823;47.032;8.310;2022-08-19T09:24:08;18.20;;;10.82;;
46084;SDS011;31823;47.032;8.310;2022-08-19T09:26:34;14.02;;;10.13;;
46084;SDS011;31823;47.032;8.310;2022-08-19T09:29:05;17.38;;;10.63;;
46084;SDS011;31823;47.032;8.310;2022-08-19T09:31:31;16.33;;;10.07;;
46084;SDS011;31823;47.032;8.310;2022-08-19T09:33:57;15.52;;;10.10;;
46084;SDS011;31823;47.032;8.310;2022-08-19T09:36:25;13.35;;;10.15;;
46084;SDS011;31823;47.032;8.310;2022-08-19T09:38:53;13.85;;;9.70;;
46084;SDS011;31823;47.032;8.310;2022-08-19T09:41:21;13.93;;;9.63;;
46084;SDS011;31823;47.032;8.310;2022-08-19T09:43:48;13.77;;;9.02;;
46084;SDS011;31823;47.032;8.310;2022-08-19T09:46:20;11.88;;;8.55;;
46084;SDS011;31823;47.032;8.310;2022-08-19T09:48:47;14.00;;;9.85;;
46084;SDS011;31823;47.032;8.310;2022-08-19T09:51:14;13.88;;;10.00;;
46084;SDS011;31823;47.032;8.310;2022-08-19T09:53:43;14.60;;;10.05;;
46084;SDS011;31823;47.032;8.310;2022-08-19T09:56:09;13.52;;;10.80;;
46084;SDS011;31823;47.032;8.310;2022-08-19T09:58:37;15.88;;;10.10;;
46084;SDS011;31823;47.032;8.310;2022-08-19T10:01:05;16.33;;;10.77;;
46084;SDS011;31823;47.032;8.310;2022-08-19T10:03:32;18.73;;;11.60;;
46084;SDS011;31823;47.032;8.310;2022-08-19T10:06:01;14.45;;;10.25;;
46084;SDS011;31823;47.032;8.310;2022-08-19T10:08:30;13.65;;;9.95;;
46084;SDS011;31823;47.032;8.310;2022-08-19T10:11:01;15.10;;;11.23;;
46084;SDS011;31823;47.032;8.310;2022-08-19T10:13:29;16.08;;;11.10;;
46084;SDS011;31823;47.032;8.310;2022-08-19T10:16:05;14.10;;;9.60;;
46084;SDS011;31823;47.032;8.310;2022-08-19T10:18:33;14.63;;;10.20;;
46084;SDS011;31823;47.032;8.310;2022-08-19T10:21:07;14.65;;;10.45;;
46084;SDS011;31823;47.032;8.310;2022-08-19T10:23:39;17.50;;;11.55;;
46084;SDS011;31823;47.032;8.310;2022-08-19T10:26:11;13.77;;;10.35;;
46084;SDS011;31823;47.032;8.310;2022-08-19T10:28:43;15.35;;;10.90;;
46084;SDS011;31823;47.032;8.310;2022-08-19T10:31:15;16.90;;;11.32;;
46084;SDS011;31823;47.032;8.310;2022-08-19T10:33:44;17.73;;;11.93;;
46084;SDS011;31823;47.032;8.310;2022-08-19T10:36:14;19.20;;;12.27;;
46084;SDS011;31823;47.032;8.310;2022-08-19T10:38:42;21.42;;;12.65;;
46084;SDS011;31823;47.032;8.310;2022-08-19T10:41:14;18.35;;;11.52;;
46084;SDS011;31823;47.032;8.310;2022-08-19T10:43:42;19.50;;;12.35;;
46084;SDS011;31823;47.032;8.310;2022-08-19T10:46:10;17.23;;;12.40;;
46084;SDS011;31823;47.032;8.310;2022-08-19T10:48:38;20.98;;;13.15;;
46084;SDS011;31823;47.032;8.310;2022-08-19T10:51:04;20.95;;;13.77;;
46084;SDS011;31823;47.032;8.310;2022-08-19T10:53:49;21.73;;;13.40;;
46084;SDS011;31823;47.032;8.310;2022-08-19T10:56:15;20.30;;;12.80;;
46084;SDS011;31823;47.032;8.310;2022-08-19T10:59:00;18.35;;;12.00;;
46084;SDS011;31823;47.032;8.310;2022-08-19T11:01:27;18.00;;;12.35;;
46084;SDS011;31823;47.032;8.310;2022-08-19T11:03:55;19.00;;;11.65;;
46084;SDS011;31823;47.032;8.310;2022-08-19T11:06:22;17.23;;;11.48;;
46084;SDS011;31823;47.032;8.310;2022-08-19T11:08:50;19.48;;;12.10;;
46084;SDS011;31823;47.032;8.310;2022-08-19T11:11:19;17.00;;;11.63;;
46084;SDS011;31823;47.032;8.310;2022-08-19T11:13:46;18.02;;;11.10;;
46084;SDS011;31823;47.032;8.310;2022-08-19T11:16:21;13.93;;;10.55;;
46084;SDS011;31823;47.032;8.310;2022-08-19T11:18:54;15.35;;;9.63;;
46084;SDS011;31823;47.032;8.310;2022-08-19T11:24:00;14.45;;;9.50;;
46084;SDS011;31823;47.032;8.310;2022-08-19T11:26:28;14.02;;;8.30;;
46084;SDS011;31823;47.032;8.310;2022-08-19T11:28:56;12.10;;;8.43;;
46084;SDS011;31823;47.032;8.310;2022-08-19T11:31:24;12.05;;;8.18;;
46084;SDS011;31823;47.032;8.310;2022-08-19T11:33:56;9.98;;;7.65;;
46084;SDS011;31823;47.032;8.310;2022-08-19T11:36:24;13.73;;;8.95;;
46084;SDS011;31823;47.032;8.310;2022-08-19T11:38:50;12.18;;;8.82;;
46084;SDS011;31823;47.032;8.310;2022-08-19T11:41:17;10.52;;;7.53;;
46084;SDS011;31823;47.032;8.310;2022-08-19T11:43:44;9.40;;;6.78;;
46084;SDS011;31823;47.032;8.310;2022-08-19T11:46:11;9.85;;;7.45;;
46084;SDS011;31823;47.032;8.310;2022-08-19T11:48:39;11.23;;;8.05;;
46084;SDS011;31823;47.032;8.310;2022-08-19T11:51:07;9.00;;;7.40;;
46084;SDS011;31823;47.032;8.310;2022-08-19T11:53:38;9.32;;;6.80;;
46084;SDS011;31823;47.032;8.310;2022-08-19T11:56:05;10.73;;;7.97;;
46084;SDS011;31823;47.032;8.310;2022-08-19T11:58:32;10.23;;;7.80;;
46084;SDS011;31823;47.032;8.310;2022-08-19T12:00:59;11.70;;;7.88;;
46084;SDS011;31823;47.032;8.310;2022-08-19T12:03:24;10.65;;;8.07;;
46084;SDS011;31823;47.032;8.310;2022-08-19T12:05:51;12.15;;;8.07;;
46084;SDS011;31823;47.032;8.310;2022-08-19T12:08:16;9.25;;;7.53;;
46084;SDS011;31823;47.032;8.310;2022-08-19T12:10:43;10.50;;;7.43;;
46084;SDS011;31823;47.032;8.310;2022-08-19T12:13:10;10.98;;;7.32;;
46084;SDS011;31823;47.032;8.310;2022-08-19T12:15:39;10.25;;;7.38;;
46084;SDS011;31823;47.032;8.310;2022-08-19T12:18:06;9.93;;;7.28;;
46084;SDS011;31823;47.032;8.310;2022-08-19T12:20:36;8.48;;;6.80;;
46084;SDS011;31823;47.032;8.310;2022-08-19T12:23:05;10.00;;;7.85;;
46084;SDS011;31823;47.032;8.310;2022-08-19T12:25:32;9.95;;;7.20;;
46084;SDS011;31823;47.032;8.310;2022-08-19T12:27:59;11.73;;;8.55;;
46084;SDS011;31823;47.032;8.310;2022-08-19T12:30:25;10.55;;;7.75;;
46084;SDS011;31823;47.032;8.310;2022-08-19T12:32:51;11.93;;;8.27;;
46084;SDS011;31823;47.032;8.310;2022-08-19T12:35:17;10.68;;;7.45;;
46084;SDS011;31823;47.032;8.310;2022-08-19T12:37:45;12.10;;;7.63;;
46084;SDS011;31823;47.032;8.310;2022-08-19T12:40:11;11.77;;;8.02;;
46084;SDS011;31823;47.032;8.310;2022-08-19T12:42:38;11.32;;;8.55;;
46084;SDS011;31823;47.032;8.310;2022-08-19T12:45:11;12.35;;;8.52;;
46084;SDS011;31823;47.032;8.310;2022-08-19T12:47:38;12.77;;;9.00;;
46084;SDS011;31823;47.032;8.310;2022-08-19T12:50:04;13.40;;;8.63;;
46084;SDS011;31823;47.032;8.310;2022-08-19T12:52:33;14.30;;;7.65;;
46084;SDS011;31823;47.032;8.310;2022-08-19T12:55:02;12.50;;;8.63;;
46084;SDS011;31823;47.032;8.310;2022-08-19T12:57:29;11.80;;;8.75;;
46084;SDS011;31823;47.032;8.310;2022-08-19T12:59:58;14.43;;;8.65;;
46084;SDS011;31823;47.032;8.310;2022-08-19T13:02:25;11.70;;;8.43;;
46084;SDS011;31823;47.032;8.310;2022-08-19T13:04:51;12.85;;;8.50;;
46084;SDS011;31823;47.032;8.310;2022-08-19T13:07:16;11.57;;;8.07;;
46084;SDS011;31823;47.032;8.310;2022-08-19T13:09:42;12.20;;;8.43;;
46084;SDS011;31823;47.032;8.310;2022-08-19T13:12:08;13.98;;;8.98;;
46084;SDS011;31823;47.032;8.310;2022-08-19T13:14:37;14.82;;;8.88;;
46084;SDS011;31823;47.032;8.310;2022-08-19T13:17:05;14.68;;;9.43;;
46084;SDS011;31823;47.032;8.310;2022-08-19T13:19:31;13.57;;;9.68;;
46084;SDS011;31823;47.032;8.310;2022-08-19T13:21:57;15.20;;;10.02;;
46084;SDS011;31823;47.032;8.310;2022-08-19T13:24:23;14.73;;;9.50;;
46084;SDS011;31823;47.032;8.310;2022-08-19T13:26:50;16.27;;;10.63;;
46084;SDS011;31823;47.032;8.310;2022-08-19T13:29:15;17.85;;;10.63;;
46084;SDS011;31823;47.032;8.310;2022-08-19T13:31:59;16.05;;;10.68;;
46084;SDS011;31823;47.032;8.310;2022-08-19T13:34:44;18.83;;;11.13;;
46084;SDS011;31823;47.032;8.310;2022-08-19T13:37:11;20.15;;;12.00;;
46084;SDS011;31823;47.032;8.310;2022-08-19T13:39:37;20.60;;;11.77;;
46084;SDS011;31823;47.032;8.310;2022-08-19T13:42:03;17.98;;;11.07;;
46084;SDS011;31823;47.032;8.310;2022-08-19T13:44:30;16.88;;;10.82;;
46084;SDS011;31823;47.032;8.310;2022-08-19T13:47:00;17.77;;;11.10;;
46084;SDS011;31823;47.032;8.310;2022-08-19T13:49:31;16.00;;;10.80;;
46084;SDS011;31823;47.032;8.310;2022-08-19T13:51:58;18.60;;;12.07;;
46084;SDS011;31823;47.032;8.310;2022-08-19T13:54:24;17.70;;;11.15;;
46084;SDS011;31823;47.032;8.310;2022-08-19T13:56:49;15.63;;;10.63;;
46084;SDS011;31823;47.032;8.310;2022-08-19T13:59:15;14.27;;;9.63;;
46084;SDS011;31823;47.032;8.310;2022-08-19T14:01:41;12.20;;;8.90;;
46084;SDS011;31823;47.032;8.310;2022-08-19T14:04:07;12.85;;;8.50;;
46084;SDS011;31823;47.032;8.310;2022-08-19T14:06:33;14.13;;;9.48;;
46084;SDS011;31823;47.032;8.310;2022-08-19T14:08:59;11.20;;;8.60;;
46084;SDS011;31823;47.032;8.310;2022-08-19T14:11:27;14.23;;;9.10;;
46084;SDS011;31823;47.032;8.310;2022-08-19T14:13:53;13.18;;;9.15;;
46084;SDS011;31823;47.032;8.310;2022-08-19T14:16:19;13.60;;;9.27;;
46084;SDS011;31823;47.032;8.310;2022-08-19T14:18:45;15.85;;;10.95;;
46084;SDS011;31823;47.032;8.310;2022-08-19T14:21:14;15.27;;;10.55;;
46084;SDS011;31823;47.032;8.310;2022-08-19T14:23:45;17.15;;;10.43;;
46084;SDS011;31823;47.032;8.310;2022-08-19T14:26:13;17.90;;;11.18;;
46084;SDS011;31823;47.032;8.310;2022-08-19T14:28:41;20.83;;;11.63;;
46084;SDS011;31823;47.032;8.310;2022-08-19T14:31:09;17.92;;;11.13;;
46084;SDS011;31823;47.032;8.310;2022-08-19T14:33:35;13.73;;;9.95;;
46084;SDS011;31823;47.032;8.310;2022-08-19T14:36:01;13.85;;;9.23;;
46084;SDS011;31823;47.032;8.310;2022-08-19T14:38:28;13.93;;;9.70;;
46084;SDS011;31823;47.032;8.310;2022-08-19T14:40:56;10.68;;;7.88;;
46084;SDS011;31823;47.032;8.310;2022-08-19T14:43:41;10.68;;;8.05;;
46084;SDS011;31823;47.032;8.310;2022-08-19T14:46:11;12.82;;;7.35;;
46084;SDS011;31823;47.032;8.310;2022-08-19T14:48:38;11.68;;;7.75;;
46084;SDS011;31823;47.032;8.310;2022-08-19T14:51:05;10.32;;;7.57;;